sensor_id;sensor_type;location;lat;lon;timestamp;temperature;humidity
70830;SHT30;58451;51.550;7.208;2023-04-01T00:00:58;10.47;80.62
70830;SHT30;58451;51.550;7.208;2023-04-01T00:02:31;10.44;80.67
70830;SHT30;58451;51.550;7.208;2023-04-01T00:04:03;10.45;80.63
70830;SHT30;58451;51.550;7.208;2023-04-01T00:05:36;10.44;81.02
70830;SHT30;58451;51.550;7.208;2023-04-01T00:07:08;10.41;81.30
70830;SHT30;58451;51.550;7.208;2023-04-01T00:08:40;10.40;81.18
70830;SHT30;58451;51.550;7.208;2023-04-01T00:10:12;10.40;81.00
70830;SHT30;58451;51.550;7.208;2023-04-01T00:11:46;10.40;80.92
70830;SHT30;58451;51.550;7.208;2023-04-01T00:13:18;10.40;80.95
70830;SHT30;58451;51.550;7.208;2023-04-01T00:14:51;10.39;81.50
70830;SHT30;58451;51.550;7.208;2023-04-01T00:16:23;10.38;81.12
70830;SHT30;58451;51.550;7.208;2023-04-01T00:17:54;10.38;81.13
70830;SHT30;58451;51.550;7.208;2023-04-01T00:19:26;10.37;81.12
70830;SHT30;58451;51.550;7.208;2023-04-01T00:20:59;10.35;81.80
70830;SHT30;58451;51.550;7.208;2023-04-01T00:22:31;10.29;82.33
70830;SHT30;58451;51.550;7.208;2023-04-01T00:24:03;10.30;82.10
70830;SHT30;58451;51.550;7.208;2023-04-01T00:25:35;10.28;81.98
70830;SHT30;58451;51.550;7.208;2023-04-01T00:27:06;10.28;81.87
70830;SHT30;58451;51.550;7.208;2023-04-01T00:28:39;10.28;81.85
70830;SHT30;58451;51.550;7.208;2023-04-01T00:30:11;10.26;82.60
70830;SHT30;58451;51.550;7.208;2023-04-01T00:31:44;10.24;82.50
70830;SHT30;58451;51.550;7.208;2023-04-01T00:33:16;10.26;82.17
70830;SHT30;58451;51.550;7.208;2023-04-01T00:34:51;10.25;82.22
70830;SHT30;58451;51.550;7.208;2023-04-01T00:36:24;10.24;82.33
70830;SHT30;58451;51.550;7.208;2023-04-01T00:37:56;10.26;82.05
70830;SHT30;58451;51.550;7.208;2023-04-01T00:39:28;10.26;82.05
70830;SHT30;58451;51.550;7.208;2023-04-01T00:41:01;10.26;81.97
70830;SHT30;58451;51.550;7.208;2023-04-01T00:42:33;10.25;81.95
70830;SHT30;58451;51.550;7.208;2023-04-01T00:44:14;10.25;81.82
70830;SHT30;58451;51.550;7.208;2023-04-01T00:45:58;10.24;81.77
70830;SHT30;58451;51.550;7.208;2023-04-01T00:47:30;10.23;81.75
70830;SHT30;58451;51.550;7.208;2023-04-01T00:49:02;10.23;81.83
70830;SHT30;58451;51.550;7.208;2023-04-01T00:50:34;10.22;81.93
70830;SHT30;58451;51.550;7.208;2023-04-01T00:52:08;10.22;81.97
70830;SHT30;58451;51.550;7.208;2023-04-01T00:53:48;10.20;82.35
70830;SHT30;58451;51.550;7.208;2023-04-01T00:55:23;10.18;82.22
70830;SHT30;58451;51.550;7.208;2023-04-01T00:57:06;10.18;82.20
70830;SHT30;58451;51.550;7.208;2023-04-01T00:58:46;10.16;82.22
70830;SHT30;58451;51.550;7.208;2023-04-01T01:00:23;10.15;82.22
70830;SHT30;58451;51.550;7.208;2023-04-01T01:01:55;10.16;82.33
70830;SHT30;58451;51.550;7.208;2023-04-01T01:08:01;10.11;83.37
70830;SHT30;58451;51.550;7.208;2023-04-01T01:11:37;10.10;82.82
70830;SHT30;58451;51.550;7.208;2023-04-01T01:13:31;10.08;82.80
70830;SHT30;58451;51.550;7.208;2023-04-01T01:15:57;10.08;82.68
70830;SHT30;58451;51.550;7.208;2023-04-01T01:26:58;10.04;83.10
70830;SHT30;58451;51.550;7.208;2023-04-01T01:31:03;10.05;83.07
70830;SHT30;58451;51.550;7.208;2023-04-01T01:34:11;10.04;82.92
70830;SHT30;58451;51.550;7.208;2023-04-01T01:37:13;10.03;83.15
70830;SHT30;58451;51.550;7.208;2023-04-01T01:38:49;10.03;83.05
70830;SHT30;58451;51.550;7.208;2023-04-01T01:40:23;10.02;83.37
70830;SHT30;58451;51.550;7.208;2023-04-01T01:42:00;10.04;83.25
70830;SHT30;58451;51.550;7.208;2023-04-01T01:43:41;10.01;83.22
70830;SHT30;58451;51.550;7.208;2023-04-01T01:45:20;10.03;83.45
70830;SHT30;58451;51.550;7.208;2023-04-01T01:46:56;10.03;83.23
70830;SHT30;58451;51.550;7.208;2023-04-01T01:48:30;10.03;82.95
70830;SHT30;58451;51.550;7.208;2023-04-01T01:50:03;10.03;83.02
70830;SHT30;58451;51.550;7.208;2023-04-01T01:51:37;10.02;83.18
70830;SHT30;58451;51.550;7.208;2023-04-01T01:53:12;10.03;83.05
70830;SHT30;58451;51.550;7.208;2023-04-01T01:54:51;10.03;83.08
70830;SHT30;58451;51.550;7.208;2023-04-01T01:56:28;10.03;83.10
70830;SHT30;58451;51.550;7.208;2023-04-01T01:58:12;10.03;83.15
70830;SHT30;58451;51.550;7.208;2023-04-01T02:00:08;10.02;83.12
70830;SHT30;58451;51.550;7.208;2023-04-01T02:01:48;10.02;83.22
70830;SHT30;58451;51.550;7.208;2023-04-01T02:03:25;10.00;83.52
70830;SHT30;58451;51.550;7.208;2023-04-01T02:05:02;9.99;83.32
70830;SHT30;58451;51.550;7.208;2023-04-01T02:06:38;9.99;83.25
70830;SHT30;58451;51.550;7.208;2023-04-01T02:08:25;10.00;83.13
70830;SHT30;58451;51.550;7.208;2023-04-01T02:10:02;10.00;83.23
70830;SHT30;58451;51.550;7.208;2023-04-01T02:13:17;10.00;83.17
70830;SHT30;58451;51.550;7.208;2023-04-01T02:15:03;9.99;83.25
70830;SHT30;58451;51.550;7.208;2023-04-01T02:16:44;9.99;83.30
70830;SHT30;58451;51.550;7.208;2023-04-01T02:18:28;9.99;83.35
70830;SHT30;58451;51.550;7.208;2023-04-01T02:20:07;10.01;83.22
70830;SHT30;58451;51.550;7.208;2023-04-01T02:21:55;10.01;83.13
70830;SHT30;58451;51.550;7.208;2023-04-01T02:23:35;10.01;83.03
70830;SHT30;58451;51.550;7.208;2023-04-01T02:25:11;10.02;82.93
70830;SHT30;58451;51.550;7.208;2023-04-01T02:26:48;10.03;82.90
70830;SHT30;58451;51.550;7.208;2023-04-01T02:28:22;10.02;82.82
70830;SHT30;58451;51.550;7.208;2023-04-01T02:29:56;10.02;83.13
70830;SHT30;58451;51.550;7.208;2023-04-01T02:31:29;10.02;82.98
70830;SHT30;58451;51.550;7.208;2023-04-01T02:33:03;10.01;82.83
70830;SHT30;58451;51.550;7.208;2023-04-01T02:34:36;10.01;83.02
70830;SHT30;58451;51.550;7.208;2023-04-01T02:36:13;10.01;82.90
70830;SHT30;58451;51.550;7.208;2023-04-01T02:37:48;10.00;83.13
70830;SHT30;58451;51.550;7.208;2023-04-01T02:39:23;10.01;82.98
70830;SHT30;58451;51.550;7.208;2023-04-01T02:40:58;10.00;83.20
70830;SHT30;58451;51.550;7.208;2023-04-01T02:42:32;10.00;83.00
70830;SHT30;58451;51.550;7.208;2023-04-01T02:44:04;9.97;83.42
70830;SHT30;58451;51.550;7.208;2023-04-01T02:45:37;9.97;83.45
70830;SHT30;58451;51.550;7.208;2023-04-01T02:47:09;9.98;83.23
70830;SHT30;58451;51.550;7.208;2023-04-01T02:48:41;9.97;83.08
70830;SHT30;58451;51.550;7.208;2023-04-01T02:50:13;9.97;83.20
70830;SHT30;58451;51.550;7.208;2023-04-01T02:51:44;9.97;83.20
70830;SHT30;58451;51.550;7.208;2023-04-01T02:53:16;9.95;83.48
70830;SHT30;58451;51.550;7.208;2023-04-01T02:54:48;9.95;83.55
70830;SHT30;58451;51.550;7.208;2023-04-01T02:56:20;9.95;83.78
70830;SHT30;58451;51.550;7.208;2023-04-01T02:57:52;9.94;83.55
70830;SHT30;58451;51.550;7.208;2023-04-01T02:59:24;9.95;83.42
70830;SHT30;58451;51.550;7.208;2023-04-01T03:00:56;9.95;83.32
70830;SHT30;58451;51.550;7.208;2023-04-01T03:02:28;9.95;83.48
70830;SHT30;58451;51.550;7.208;2023-04-01T03:04:00;9.93;83.47
70830;SHT30;58451;51.550;7.208;2023-04-01T03:05:31;9.93;83.83
70830;SHT30;58451;51.550;7.208;2023-04-01T03:07:04;9.90;83.82
70830;SHT30;58451;51.550;7.208;2023-04-01T03:08:36;9.89;83.85
70830;SHT30;58451;51.550;7.208;2023-04-01T03:10:08;9.90;83.72
70830;SHT30;58451;51.550;7.208;2023-04-01T03:11:40;9.91;83.68
70830;SHT30;58451;51.550;7.208;2023-04-01T03:13:12;9.89;83.70
70830;SHT30;58451;51.550;7.208;2023-04-01T03:14:44;9.89;83.57
70830;SHT30;58451;51.550;7.208;2023-04-01T03:16:16;9.90;83.60
70830;SHT30;58451;51.550;7.208;2023-04-01T03:17:47;9.88;83.78
70830;SHT30;58451;51.550;7.208;2023-04-01T03:19:19;9.89;83.68
70830;SHT30;58451;51.550;7.208;2023-04-01T03:20:51;9.88;83.73
70830;SHT30;58451;51.550;7.208;2023-04-01T03:22:23;9.88;83.72
70830;SHT30;58451;51.550;7.208;2023-04-01T03:23:55;9.87;83.65
70830;SHT30;58451;51.550;7.208;2023-04-01T03:25:27;9.87;83.62
70830;SHT30;58451;51.550;7.208;2023-04-01T03:27:00;9.88;83.43
70830;SHT30;58451;51.550;7.208;2023-04-01T03:28:31;9.88;83.48
70830;SHT30;58451;51.550;7.208;2023-04-01T03:30:04;9.89;83.57
70830;SHT30;58451;51.550;7.208;2023-04-01T03:31:38;9.88;83.60
70830;SHT30;58451;51.550;7.208;2023-04-01T03:33:10;9.88;83.48
70830;SHT30;58451;51.550;7.208;2023-04-01T03:34:42;9.89;83.47
70830;SHT30;58451;51.550;7.208;2023-04-01T03:36:13;9.90;83.50
70830;SHT30;58451;51.550;7.208;2023-04-01T03:37:46;9.90;83.43
70830;SHT30;58451;51.550;7.208;2023-04-01T03:39:18;9.88;83.72
70830;SHT30;58451;51.550;7.208;2023-04-01T03:40:51;9.88;83.67
70830;SHT30;58451;51.550;7.208;2023-04-01T03:42:23;9.88;83.60
70830;SHT30;58451;51.550;7.208;2023-04-01T03:43:54;9.87;84.13
70830;SHT30;58451;51.550;7.208;2023-04-01T03:45:26;9.86;84.20
70830;SHT30;58451;51.550;7.208;2023-04-01T03:46:58;9.85;84.27
70830;SHT30;58451;51.550;7.208;2023-04-01T03:48:32;9.85;84.35
70830;SHT30;58451;51.550;7.208;2023-04-01T03:50:04;9.85;84.05
70830;SHT30;58451;51.550;7.208;2023-04-01T03:51:38;9.84;83.98
70830;SHT30;58451;51.550;7.208;2023-04-01T03:53:15;9.84;84.38
70830;SHT30;58451;51.550;7.208;2023-04-01T03:54:47;9.82;84.75
70830;SHT30;58451;51.550;7.208;2023-04-01T03:56:19;9.82;84.33
70830;SHT30;58451;51.550;7.208;2023-04-01T03:57:50;9.82;84.27
70830;SHT30;58451;51.550;7.208;2023-04-01T03:59:22;9.84;84.15
70830;SHT30;58451;51.550;7.208;2023-04-01T04:00:54;9.82;84.63
70830;SHT30;58451;51.550;7.208;2023-04-01T04:02:26;9.82;84.48
70830;SHT30;58451;51.550;7.208;2023-04-01T04:03:58;9.84;84.52
70830;SHT30;58451;51.550;7.208;2023-04-01T04:05:32;9.83;84.63
70830;SHT30;58451;51.550;7.208;2023-04-01T04:07:05;9.82;84.55
70830;SHT30;58451;51.550;7.208;2023-04-01T04:08:49;9.85;84.35
70830;SHT30;58451;51.550;7.208;2023-04-01T04:10:21;9.85;84.60
70830;SHT30;58451;51.550;7.208;2023-04-01T04:11:54;9.86;84.62
70830;SHT30;58451;51.550;7.208;2023-04-01T04:13:26;9.86;84.80
70830;SHT30;58451;51.550;7.208;2023-04-01T04:15:03;9.87;84.83
70830;SHT30;58451;51.550;7.208;2023-04-01T04:16:36;9.88;84.53
70830;SHT30;58451;51.550;7.208;2023-04-01T04:18:08;9.88;84.67
70830;SHT30;58451;51.550;7.208;2023-04-01T04:19:40;9.90;84.48
70830;SHT30;58451;51.550;7.208;2023-04-01T04:21:13;9.91;84.60
70830;SHT30;58451;51.550;7.208;2023-04-01T04:22:46;9.89;84.82
70830;SHT30;58451;51.550;7.208;2023-04-01T04:24:18;9.92;84.42
70830;SHT30;58451;51.550;7.208;2023-04-01T04:26:02;9.94;84.37
70830;SHT30;58451;51.550;7.208;2023-04-01T04:27:41;9.94;84.30
70830;SHT30;58451;51.550;7.208;2023-04-01T04:29:15;9.95;84.38
70830;SHT30;58451;51.550;7.208;2023-04-01T04:30:47;9.95;84.32
70830;SHT30;58451;51.550;7.208;2023-04-01T04:32:18;9.95;84.27
70830;SHT30;58451;51.550;7.208;2023-04-01T04:33:51;9.95;84.22
70830;SHT30;58451;51.550;7.208;2023-04-01T04:35:24;9.95;84.18
70830;SHT30;58451;51.550;7.208;2023-04-01T04:36:56;9.96;84.12
70830;SHT30;58451;51.550;7.208;2023-04-01T04:38:29;9.95;84.12
70830;SHT30;58451;51.550;7.208;2023-04-01T04:40:02;9.95;84.13
70830;SHT30;58451;51.550;7.208;2023-04-01T04:41:36;9.95;84.13
70830;SHT30;58451;51.550;7.208;2023-04-01T04:43:10;9.93;84.10
70830;SHT30;58451;51.550;7.208;2023-04-01T04:44:44;9.94;84.08
70830;SHT30;58451;51.550;7.208;2023-04-01T04:46:16;9.94;84.28
70830;SHT30;58451;51.550;7.208;2023-04-01T04:47:50;9.94;84.20
70830;SHT30;58451;51.550;7.208;2023-04-01T04:49:22;9.94;84.30
70830;SHT30;58451;51.550;7.208;2023-04-01T04:50:54;9.96;84.23
70830;SHT30;58451;51.550;7.208;2023-04-01T04:52:27;9.96;84.15
70830;SHT30;58451;51.550;7.208;2023-04-01T04:53:59;9.97;84.22
70830;SHT30;58451;51.550;7.208;2023-04-01T04:55:46;9.96;84.17
70830;SHT30;58451;51.550;7.208;2023-04-01T04:57:38;9.97;84.25
70830;SHT30;58451;51.550;7.208;2023-04-01T04:59:10;9.97;84.40
70830;SHT30;58451;51.550;7.208;2023-04-01T05:00:53;9.96;84.60
70830;SHT30;58451;51.550;7.208;2023-04-01T05:02:32;9.97;84.40
70830;SHT30;58451;51.550;7.208;2023-04-01T05:04:04;9.96;84.53
70830;SHT30;58451;51.550;7.208;2023-04-01T05:05:37;9.95;84.58
70830;SHT30;58451;51.550;7.208;2023-04-01T05:07:10;9.96;84.47
70830;SHT30;58451;51.550;7.208;2023-04-01T05:08:42;9.98;84.33
70830;SHT30;58451;51.550;7.208;2023-04-01T05:10:16;9.98;84.27
70830;SHT30;58451;51.550;7.208;2023-04-01T05:11:48;9.98;84.40
70830;SHT30;58451;51.550;7.208;2023-04-01T05:13:20;9.98;84.35
70830;SHT30;58451;51.550;7.208;2023-04-01T05:14:52;9.99;84.32
70830;SHT30;58451;51.550;7.208;2023-04-01T05:16:24;10.00;84.18
70830;SHT30;58451;51.550;7.208;2023-04-01T05:17:56;10.03;84.10
70830;SHT30;58451;51.550;7.208;2023-04-01T05:19:28;10.03;84.08
70830;SHT30;58451;51.550;7.208;2023-04-01T05:21:00;10.05;83.98
70830;SHT30;58451;51.550;7.208;2023-04-01T05:22:32;10.06;83.95
70830;SHT30;58451;51.550;7.208;2023-04-01T05:24:07;10.05;84.23
70830;SHT30;58451;51.550;7.208;2023-04-01T05:25:41;10.06;84.28
70830;SHT30;58451;51.550;7.208;2023-04-01T05:27:14;10.06;84.32
70830;SHT30;58451;51.550;7.208;2023-04-01T05:28:46;10.07;84.13
70830;SHT30;58451;51.550;7.208;2023-04-01T05:30:18;10.08;84.07
70830;SHT30;58451;51.550;7.208;2023-04-01T05:32:03;10.10;83.98
70830;SHT30;58451;51.550;7.208;2023-04-01T05:33:35;10.10;83.93
70830;SHT30;58451;51.550;7.208;2023-04-01T05:35:08;10.11;83.97
70830;SHT30;58451;51.550;7.208;2023-04-01T05:36:41;10.12;83.93
70830;SHT30;58451;51.550;7.208;2023-04-01T05:38:14;10.13;84.00
70830;SHT30;58451;51.550;7.208;2023-04-01T05:39:46;10.13;83.92
70830;SHT30;58451;51.550;7.208;2023-04-01T05:41:18;10.13;84.15
70830;SHT30;58451;51.550;7.208;2023-04-01T05:42:50;10.13;84.02
70830;SHT30;58451;51.550;7.208;2023-04-01T05:44:22;10.15;83.95
70830;SHT30;58451;51.550;7.208;2023-04-01T05:46:14;10.15;84.03
70830;SHT30;58451;51.550;7.208;2023-04-01T05:47:53;10.15;84.02
70830;SHT30;58451;51.550;7.208;2023-04-01T05:49:26;10.16;84.12
70830;SHT30;58451;51.550;7.208;2023-04-01T05:50:59;10.17;83.97
70830;SHT30;58451;51.550;7.208;2023-04-01T05:52:32;10.19;83.90
70830;SHT30;58451;51.550;7.208;2023-04-01T05:54:04;10.21;83.87
70830;SHT30;58451;51.550;7.208;2023-04-01T05:55:37;10.22;83.83
70830;SHT30;58451;51.550;7.208;2023-04-01T05:57:09;10.24;83.72
70830;SHT30;58451;51.550;7.208;2023-04-01T05:58:41;10.26;83.72
70830;SHT30;58451;51.550;7.208;2023-04-01T06:00:13;10.26;83.77
70830;SHT30;58451;51.550;7.208;2023-04-01T06:01:47;10.27;83.77
70830;SHT30;58451;51.550;7.208;2023-04-01T06:03:19;10.28;83.73
70830;SHT30;58451;51.550;7.208;2023-04-01T06:04:54;10.28;83.70
70830;SHT30;58451;51.550;7.208;2023-04-01T06:06:55;10.28;83.78
70830;SHT30;58451;51.550;7.208;2023-04-01T06:08:27;10.31;83.73
70830;SHT30;58451;51.550;7.208;2023-04-01T06:10:05;10.34;83.72
70830;SHT30;58451;51.550;7.208;2023-04-01T06:16:18;10.39;83.57
70830;SHT30;58451;51.550;7.208;2023-04-01T06:18:17;10.42;83.58
70830;SHT30;58451;51.550;7.208;2023-04-01T06:30:24;10.45;83.60
70830;SHT30;58451;51.550;7.208;2023-04-01T06:32:04;10.46;83.50
70830;SHT30;58451;51.550;7.208;2023-04-01T06:38:19;10.44;83.40
70830;SHT30;58451;51.550;7.208;2023-04-01T06:45:05;10.46;83.40
70830;SHT30;58451;51.550;7.208;2023-04-01T06:49:31;10.48;83.47
70830;SHT30;58451;51.550;7.208;2023-04-01T06:51:55;10.51;83.50
70830;SHT30;58451;51.550;7.208;2023-04-01T06:54:09;10.53;83.40
70830;SHT30;58451;51.550;7.208;2023-04-01T06:56:09;10.53;83.52
70830;SHT30;58451;51.550;7.208;2023-04-01T06:58:04;10.54;83.37
70830;SHT30;58451;51.550;7.208;2023-04-01T06:59:47;10.55;83.40
70830;SHT30;58451;51.550;7.208;2023-04-01T07:01:21;10.52;83.43
70830;SHT30;58451;51.550;7.208;2023-04-01T07:04:49;10.51;83.65
70830;SHT30;58451;51.550;7.208;2023-04-01T07:06:35;10.49;83.90
70830;SHT30;58451;51.550;7.208;2023-04-01T07:08:35;10.48;83.68
70830;SHT30;58451;51.550;7.208;2023-04-01T07:10:15;10.49;83.63
70830;SHT30;58451;51.550;7.208;2023-04-01T07:14:39;10.48;83.63
70830;SHT30;58451;51.550;7.208;2023-04-01T07:18:22;10.51;83.55
70830;SHT30;58451;51.550;7.208;2023-04-01T07:20:31;10.51;83.58
70830;SHT30;58451;51.550;7.208;2023-04-01T07:24:36;10.61;83.33
70830;SHT30;58451;51.550;7.208;2023-04-01T07:26:20;10.65;83.23
70830;SHT30;58451;51.550;7.208;2023-04-01T07:27:58;10.66;83.28
70830;SHT30;58451;51.550;7.208;2023-04-01T07:29:39;10.69;83.20
70830;SHT30;58451;51.550;7.208;2023-04-01T07:33:50;10.76;83.08
70830;SHT30;58451;51.550;7.208;2023-04-01T07:35:55;10.77;83.00
70830;SHT30;58451;51.550;7.208;2023-04-01T07:38:11;10.78;82.93
70830;SHT30;58451;51.550;7.208;2023-04-01T07:43:39;10.83;83.02
70830;SHT30;58451;51.550;7.208;2023-04-01T07:50:02;10.90;82.93
70830;SHT30;58451;51.550;7.208;2023-04-01T07:52:01;10.93;82.95
70830;SHT30;58451;51.550;7.208;2023-04-01T07:56:21;11.02;82.78
70830;SHT30;58451;51.550;7.208;2023-04-01T07:58:32;11.07;82.52
70830;SHT30;58451;51.550;7.208;2023-04-01T08:03:55;11.10;82.43
70830;SHT30;58451;51.550;7.208;2023-04-01T08:07:21;11.09;82.45
70830;SHT30;58451;51.550;7.208;2023-04-01T08:14:58;11.06;82.50
70830;SHT30;58451;51.550;7.208;2023-04-01T08:19:30;11.06;82.33
70830;SHT30;58451;51.550;7.208;2023-04-01T08:21:43;11.06;82.30
70830;SHT30;58451;51.550;7.208;2023-04-01T08:23:24;11.07;82.27
70830;SHT30;58451;51.550;7.208;2023-04-01T08:25:04;11.09;82.20
70830;SHT30;58451;51.550;7.208;2023-04-01T08:26:51;11.11;82.22
70830;SHT30;58451;51.550;7.208;2023-04-01T08:29:13;11.13;82.17
70830;SHT30;58451;51.550;7.208;2023-04-01T08:30:43;11.13;82.18
70830;SHT30;58451;51.550;7.208;2023-04-01T08:32:36;11.17;82.12
70830;SHT30;58451;51.550;7.208;2023-04-01T08:34:15;11.18;82.03
70830;SHT30;58451;51.550;7.208;2023-04-01T08:37:49;11.18;82.03
70830;SHT30;58451;51.550;7.208;2023-04-01T08:39:31;11.20;82.12
70830;SHT30;58451;51.550;7.208;2023-04-01T08:55:25;11.19;82.37
70830;SHT30;58451;51.550;7.208;2023-04-01T08:57:26;11.19;82.23
70830;SHT30;58451;51.550;7.208;2023-04-01T09:11:24;11.00;82.58
70830;SHT30;58451;51.550;7.208;2023-04-01T09:13:52;10.99;82.87
70830;SHT30;58451;51.550;7.208;2023-04-01T09:20:17;11.04;82.87
70830;SHT30;58451;51.550;7.208;2023-04-01T09:22:10;11.06;82.70
70830;SHT30;58451;51.550;7.208;2023-04-01T09:28:42;11.12;82.77
70830;SHT30;58451;51.550;7.208;2023-04-01T09:37:19;11.16;82.77
70830;SHT30;58451;51.550;7.208;2023-04-01T09:53:04;11.42;82.40
70830;SHT30;58451;51.550;7.208;2023-04-01T09:55:14;11.48;82.43
70830;SHT30;58451;51.550;7.208;2023-04-01T10:04:01;11.74;82.05
70830;SHT30;58451;51.550;7.208;2023-04-01T10:08:36;11.85;81.68
70830;SHT30;58451;51.550;7.208;2023-04-01T10:29:59;12.03;81.30
70830;SHT30;58451;51.550;7.208;2023-04-01T10:44:57;11.88;81.43
70830;SHT30;58451;51.550;7.208;2023-04-01T10:51:10;11.95;81.52
70830;SHT30;58451;51.550;7.208;2023-04-01T10:55:57;12.05;81.58
70830;SHT30;58451;51.550;7.208;2023-04-01T11:01:03;11.97;81.43
70830;SHT30;58451;51.550;7.208;2023-04-01T11:24:41;12.02;81.73
70830;SHT30;58451;51.550;7.208;2023-04-01T11:34:49;12.10;81.47
70830;SHT30;58451;51.550;7.208;2023-04-01T11:46:17;11.92;81.82
70830;SHT30;58451;51.550;7.208;2023-04-01T11:48:15;11.95;81.67
70830;SHT30;58451;51.550;7.208;2023-04-01T11:56:07;11.97;81.50
70830;SHT30;58451;51.550;7.208;2023-04-01T12:01:59;12.04;81.57
70830;SHT30;58451;51.550;7.208;2023-04-01T12:06:05;12.06;81.60
70830;SHT30;58451;51.550;7.208;2023-04-01T12:07:53;12.07;81.68
70830;SHT30;58451;51.550;7.208;2023-04-01T12:11:22;12.15;81.47
70830;SHT30;58451;51.550;7.208;2023-04-01T12:13:31;12.14;81.52
70830;SHT30;58451;51.550;7.208;2023-04-01T12:19:41;12.17;81.53
70830;SHT30;58451;51.550;7.208;2023-04-01T12:21:38;12.11;81.60
70830;SHT30;58451;51.550;7.208;2023-04-01T12:29:44;11.90;82.00
70830;SHT30;58451;51.550;7.208;2023-04-01T13:02:29;11.82;82.30
70830;SHT30;58451;51.550;7.208;2023-04-01T13:16:58;11.59;82.70
70830;SHT30;58451;51.550;7.208;2023-04-01T13:25:00;11.75;82.70
70830;SHT30;58451;51.550;7.208;2023-04-01T13:27:14;11.90;82.33
70830;SHT30;58451;51.550;7.208;2023-04-01T13:29:14;12.00;82.25
70830;SHT30;58451;51.550;7.208;2023-04-01T13:34:56;12.07;82.20
70830;SHT30;58451;51.550;7.208;2023-04-01T13:48:25;12.11;81.95
70830;SHT30;58451;51.550;7.208;2023-04-01T13:56:37;11.76;82.15
70830;SHT30;58451;51.550;7.208;2023-04-01T14:02:21;11.78;82.07
70830;SHT30;58451;51.550;7.208;2023-04-01T14:06:27;11.74;82.30
70830;SHT30;58451;51.550;7.208;2023-04-01T14:10:00;11.64;82.60
70830;SHT30;58451;51.550;7.208;2023-04-01T14:30:38;11.64;83.27
70830;SHT30;58451;51.550;7.208;2023-04-01T14:35:20;11.73;83.10
70830;SHT30;58451;51.550;7.208;2023-04-01T14:37:35;11.76;82.98
70830;SHT30;58451;51.550;7.208;2023-04-01T14:41:42;11.83;82.92
70830;SHT30;58451;51.550;7.208;2023-04-01T14:49:49;12.07;82.53
70830;SHT30;58451;51.550;7.208;2023-04-01T14:55:01;12.33;82.17
70830;SHT30;58451;51.550;7.208;2023-04-01T14:57:05;12.37;82.12
70830;SHT30;58451;51.550;7.208;2023-04-01T14:59:06;12.39;82.03
70830;SHT30;58451;51.550;7.208;2023-04-01T15:02:42;12.31;81.98
70830;SHT30;58451;51.550;7.208;2023-04-01T15:08:15;12.06;82.18
70830;SHT30;58451;51.550;7.208;2023-04-01T15:10:19;12.03;82.30
70830;SHT30;58451;51.550;7.208;2023-04-01T15:12:29;12.00;82.30
70830;SHT30;58451;51.550;7.208;2023-04-01T15:23:40;12.29;81.70
70830;SHT30;58451;51.550;7.208;2023-04-01T15:25:41;12.25;81.82
70830;SHT30;58451;51.550;7.208;2023-04-01T15:27:37;12.18;81.98
70830;SHT30;58451;51.550;7.208;2023-04-01T15:29:31;12.10;82.02
70830;SHT30;58451;51.550;7.208;2023-04-01T15:35:37;11.93;82.13
70830;SHT30;58451;51.550;7.208;2023-04-01T15:41:28;11.77;82.32
70830;SHT30;58451;51.550;7.208;2023-04-01T15:46:59;11.66;82.50
70830;SHT30;58451;51.550;7.208;2023-04-01T16:02:07;11.48;82.82
70830;SHT30;58451;51.550;7.208;2023-04-01T16:12:15;11.52;83.12
70830;SHT30;58451;51.550;7.208;2023-04-01T16:14:07;11.54;83.37
70830;SHT30;58451;51.550;7.208;2023-04-01T16:22:59;11.54;83.23
70830;SHT30;58451;51.550;7.208;2023-04-01T16:24:53;11.52;83.20
70830;SHT30;58451;51.550;7.208;2023-04-01T16:28:19;11.43;83.55
70830;SHT30;58451;51.550;7.208;2023-04-01T16:33:56;11.28;83.87
70830;SHT30;58451;51.550;7.208;2023-04-01T16:35:45;11.24;84.07
70830;SHT30;58451;51.550;7.208;2023-04-01T16:39:41;11.18;83.90
70830;SHT30;58451;51.550;7.208;2023-04-01T16:41:36;11.14;84.05
70830;SHT30;58451;51.550;7.208;2023-04-01T16:46:43;11.04;84.20
70830;SHT30;58451;51.550;7.208;2023-04-01T16:49:13;11.00;84.30
70830;SHT30;58451;51.550;7.208;2023-04-01T16:51:09;10.97;84.13
70830;SHT30;58451;51.550;7.208;2023-04-01T16:55:33;10.95;84.20
70830;SHT30;58451;51.550;7.208;2023-04-01T16:57:23;10.96;84.28
70830;SHT30;58451;51.550;7.208;2023-04-01T16:59:27;10.97;84.30
70830;SHT30;58451;51.550;7.208;2023-04-01T17:03:36;10.97;84.30
70830;SHT30;58451;51.550;7.208;2023-04-01T17:05:16;10.98;84.30
70830;SHT30;58451;51.550;7.208;2023-04-01T17:12:57;10.99;84.48
70830;SHT30;58451;51.550;7.208;2023-04-01T17:17:33;10.97;84.53
70830;SHT30;58451;51.550;7.208;2023-04-01T17:23:27;10.98;84.50
70830;SHT30;58451;51.550;7.208;2023-04-01T17:31:02;10.93;84.67
70830;SHT30;58451;51.550;7.208;2023-04-01T17:35:42;10.90;84.68
70830;SHT30;58451;51.550;7.208;2023-04-01T17:39:32;10.89;84.77
70830;SHT30;58451;51.550;7.208;2023-04-01T17:51:36;10.87;85.00
70830;SHT30;58451;51.550;7.208;2023-04-01T17:55:38;10.85;85.08
70830;SHT30;58451;51.550;7.208;2023-04-01T17:59:39;10.83;85.08
70830;SHT30;58451;51.550;7.208;2023-04-01T18:01:34;10.84;85.25
70830;SHT30;58451;51.550;7.208;2023-04-01T18:07:48;10.83;85.27
70830;SHT30;58451;51.550;7.208;2023-04-01T18:09:55;10.81;85.47
70830;SHT30;58451;51.550;7.208;2023-04-01T18:11:58;10.80;85.38
70830;SHT30;58451;51.550;7.208;2023-04-01T18:13:41;10.80;85.38
70830;SHT30;58451;51.550;7.208;2023-04-01T18:22:21;10.74;85.55
70830;SHT30;58451;51.550;7.208;2023-04-01T18:24:43;10.73;85.65
70830;SHT30;58451;51.550;7.208;2023-04-01T18:27:01;10.72;85.87
70830;SHT30;58451;51.550;7.208;2023-04-01T18:28:22;10.71;85.83
70830;SHT30;58451;51.550;7.208;2023-04-01T18:30:11;10.70;85.78
70830;SHT30;58451;51.550;7.208;2023-04-01T18:31:48;10.71;85.70
70830;SHT30;58451;51.550;7.208;2023-04-01T18:34:08;10.72;85.80
70830;SHT30;58451;51.550;7.208;2023-04-01T18:36:05;10.72;85.73
70830;SHT30;58451;51.550;7.208;2023-04-01T18:38:33;10.73;85.70
70830;SHT30;58451;51.550;7.208;2023-04-01T18:46:38;10.77;85.78
70830;SHT30;58451;51.550;7.208;2023-04-01T18:52:33;10.80;86.32
70830;SHT30;58451;51.550;7.208;2023-04-01T18:56:05;10.81;86.58
70830;SHT30;58451;51.550;7.208;2023-04-01T18:57:47;10.80;86.67
70830;SHT30;58451;51.550;7.208;2023-04-01T19:03:40;10.78;86.60
70830;SHT30;58451;51.550;7.208;2023-04-01T19:05:44;10.77;86.60
70830;SHT30;58451;51.550;7.208;2023-04-01T19:07:43;10.77;86.45
70830;SHT30;58451;51.550;7.208;2023-04-01T19:09:32;10.76;86.45
70830;SHT30;58451;51.550;7.208;2023-04-01T19:19:42;10.65;86.32
70830;SHT30;58451;51.550;7.208;2023-04-01T19:22:01;10.60;86.28
70830;SHT30;58451;51.550;7.208;2023-04-01T19:26:56;10.51;86.32
70830;SHT30;58451;51.550;7.208;2023-04-01T19:36:42;10.36;86.22
70830;SHT30;58451;51.550;7.208;2023-04-01T19:38:40;10.31;86.13
70830;SHT30;58451;51.550;7.208;2023-04-01T19:43:00;10.25;86.22